sensor_id;sensor_type;location;lat;lon;timestamp;temperature;humidity
18454;DHT22;9356;52.202;20.950;2023-03-01T00:00:41;0.50;99.70
18454;DHT22;9356;52.202;20.950;2023-03-01T00:01:44;0.50;99.70
18454;DHT22;9356;52.202;20.950;2023-03-01T00:02:51;0.50;99.60
18454;DHT22;9356;52.202;20.950;2023-03-01T00:03:54;0.50;99.60
18454;DHT22;9356;52.202;20.950;2023-03-01T00:04:58;0.50;99.50
18454;DHT22;9356;52.202;20.950;2023-03-01T00:06:02;0.50;99.60
18454;DHT22;9356;52.202;20.950;2023-03-01T00:07:06;0.50;99.60
18454;DHT22;9356;52.202;20.950;2023-03-01T00:08:09;0.50;99.60
18454;DHT22;9356;52.202;20.950;2023-03-01T00:09:13;0.50;99.60
18454;DHT22;9356;52.202;20.950;2023-03-01T00:10:16;0.50;99.70
18454;DHT22;9356;52.202;20.950;2023-03-01T00:11:22;0.00;99.50
18454;DHT22;9356;52.202;20.950;2023-03-01T00:12:26;0.50;99.70
18454;DHT22;9356;52.202;20.950;2023-03-01T00:13:29;0.50;99.60
18454;DHT22;9356;52.202;20.950;2023-03-01T00:14:35;0.40;99.50
18454;DHT22;9356;52.202;20.950;2023-03-01T00:15:39;0.40;99.60
18454;DHT22;9356;52.202;20.950;2023-03-01T00:16:44;0.40;99.70
18454;DHT22;9356;52.202;20.950;2023-03-01T00:17:47;0.40;99.70
18454;DHT22;9356;52.202;20.950;2023-03-01T00:18:53;0.40;99.70
18454;DHT22;9356;52.202;20.950;2023-03-01T00:19:56;0.40;99.80
18454;DHT22;9356;52.202;20.950;2023-03-01T00:21:00;0.40;99.80
18454;DHT22;9356;52.202;20.950;2023-03-01T00:22:03;0.80;99.90
18454;DHT22;9356;52.202;20.950;2023-03-01T00:23:09;0.40;99.70
18454;DHT22;9356;52.202;20.950;2023-03-01T00:24:11;0.40;99.60
18454;DHT22;9356;52.202;20.950;2023-03-01T00:25:15;0.40;99.70
18454;DHT22;9356;52.202;20.950;2023-03-01T00:26:23;0.40;99.70
18454;DHT22;9356;52.202;20.950;2023-03-01T00:27:33;0.40;99.70
18454;DHT22;9356;52.202;20.950;2023-03-01T00:28:36;0.40;99.80
18454;DHT22;9356;52.202;20.950;2023-03-01T00:29:39;0.30;99.60
18454;DHT22;9356;52.202;20.950;2023-03-01T00:30:42;0.40;99.70
18454;DHT22;9356;52.202;20.950;2023-03-01T00:31:45;0.30;99.80
18454;DHT22;9356;52.202;20.950;2023-03-01T00:32:51;0.40;99.80
18454;DHT22;9356;52.202;20.950;2023-03-01T00:34:02;0.30;99.80
18454;DHT22;9356;52.202;20.950;2023-03-01T00:35:06;0.30;99.90
18454;DHT22;9356;52.202;20.950;2023-03-01T00:36:11;0.40;99.90
18454;DHT22;9356;52.202;20.950;2023-03-01T00:37:17;0.30;99.80
18454;DHT22;9356;52.202;20.950;2023-03-01T00:38:20;0.30;99.90
18454;DHT22;9356;52.202;20.950;2023-03-01T00:39:23;0.40;99.90
18454;DHT22;9356;52.202;20.950;2023-03-01T00:40:27;0.30;99.70
18454;DHT22;9356;52.202;20.950;2023-03-01T00:41:31;0.30;99.70
18454;DHT22;9356;52.202;20.950;2023-03-01T00:42:33;0.30;99.70
18454;DHT22;9356;52.202;20.950;2023-03-01T00:43:37;0.20;99.80
18454;DHT22;9356;52.202;20.950;2023-03-01T00:44:42;0.20;99.70
18454;DHT22;9356;52.202;20.950;2023-03-01T00:45:46;0.20;99.90
18454;DHT22;9356;52.202;20.950;2023-03-01T00:46:51;0.20;99.80
18454;DHT22;9356;52.202;20.950;2023-03-01T00:47:57;0.20;99.80
18454;DHT22;9356;52.202;20.950;2023-03-01T00:49:06;0.20;99.80
18454;DHT22;9356;52.202;20.950;2023-03-01T00:50:12;0.20;99.90
18454;DHT22;9356;52.202;20.950;2023-03-01T00:51:17;0.20;99.90
18454;DHT22;9356;52.202;20.950;2023-03-01T00:52:21;0.20;99.90
18454;DHT22;9356;52.202;20.950;2023-03-01T00:53:26;0.20;99.90
18454;DHT22;9356;52.202;20.950;2023-03-01T00:54:30;0.30;99.90
18454;DHT22;9356;52.202;20.950;2023-03-01T00:55:33;0.30;99.90
18454;DHT22;9356;52.202;20.950;2023-03-01T00:56:39;0.30;99.90
18454;DHT22;9356;52.202;20.950;2023-03-01T00:57:42;0.30;99.90
18454;DHT22;9356;52.202;20.950;2023-03-01T00:58:45;0.30;99.90
18454;DHT22;9356;52.202;20.950;2023-03-01T00:59:49;0.30;99.90
18454;DHT22;9356;52.202;20.950;2023-03-01T01:00:54;-0.10;99.90
18454;DHT22;9356;52.202;20.950;2023-03-01T01:01:58;0.30;99.90
18454;DHT22;9356;52.202;20.950;2023-03-01T01:03:03;0.30;99.90
18454;DHT22;9356;52.202;20.950;2023-03-01T01:04:10;0.30;99.90
18454;DHT22;9356;52.202;20.950;2023-03-01T01:05:14;0.40;99.90
18454;DHT22;9356;52.202;20.950;2023-03-01T01:06:27;0.40;99.90
18454;DHT22;9356;52.202;20.950;2023-03-01T01:07:31;0.40;99.80
18454;DHT22;9356;52.202;20.950;2023-03-01T01:08:35;0.40;99.80
18454;DHT22;9356;52.202;20.950;2023-03-01T01:09:37;0.40;99.90
18454;DHT22;9356;52.202;20.950;2023-03-01T01:10:43;0.40;99.80
18454;DHT22;9356;52.202;20.950;2023-03-01T01:11:48;0.60;99.90
18454;DHT22;9356;52.202;20.950;2023-03-01T01:12:52;0.40;99.70
18454;DHT22;9356;52.202;20.950;2023-03-01T01:13:56;0.40;99.90
18454;DHT22;9356;52.202;20.950;2023-03-01T01:15:00;0.30;99.70
18454;DHT22;9356;52.202;20.950;2023-03-01T01:16:04;0.20;99.80
18454;DHT22;9356;52.202;20.950;2023-03-01T01:17:08;0.30;99.90
18454;DHT22;9356;52.202;20.950;2023-03-01T01:18:11;0.30;99.80
18454;DHT22;9356;52.202;20.950;2023-03-01T01:19:17;0.30;99.80
18454;DHT22;9356;52.202;20.950;2023-03-01T01:20:20;0.30;99.90
18454;DHT22;9356;52.202;20.950;2023-03-01T01:21:25;0.30;99.80
18454;DHT22;9356;52.202;20.950;2023-03-01T01:22:31;0.30;99.80
18454;DHT22;9356;52.202;20.950;2023-03-01T01:23:40;0.30;99.80
18454;DHT22;9356;52.202;20.950;2023-03-01T01:24:43;0.30;99.80
18454;DHT22;9356;52.202;20.950;2023-03-01T01:25:47;0.30;99.90
18454;DHT22;9356;52.202;20.950;2023-03-01T01:26:50;0.30;99.90
18454;DHT22;9356;52.202;20.950;2023-03-01T01:27:55;0.40;99.90
18454;DHT22;9356;52.202;20.950;2023-03-01T01:28:58;0.40;99.80
18454;DHT22;9356;52.202;20.950;2023-03-01T01:30:04;0.40;99.90
18454;DHT22;9356;52.202;20.950;2023-03-01T01:31:08;0.40;99.80
18454;DHT22;9356;52.202;20.950;2023-03-01T01:32:14;0.40;99.90
18454;DHT22;9356;52.202;20.950;2023-03-01T01:33:18;0.40;99.80
18454;DHT22;9356;52.202;20.950;2023-03-01T01:34:22;0.40;99.80
18454;DHT22;9356;52.202;20.950;2023-03-01T01:35:27;0.40;99.80
18454;DHT22;9356;52.202;20.950;2023-03-01T01:36:30;0.40;99.80
18454;DHT22;9356;52.202;20.950;2023-03-01T01:37:34;0.40;99.80
18454;DHT22;9356;52.202;20.950;2023-03-01T01:38:38;0.50;99.80
18454;DHT22;9356;52.202;20.950;2023-03-01T01:39:42;0.40;99.80
18454;DHT22;9356;52.202;20.950;2023-03-01T01:40:47;0.40;99.80
18454;DHT22;9356;52.202;20.950;2023-03-01T01:41:51;0.40;99.70
18454;DHT22;9356;52.202;20.950;2023-03-01T01:42:55;0.40;99.70
18454;DHT22;9356;52.202;20.950;2023-03-01T01:44:17;0.40;99.60
18454;DHT22;9356;52.202;20.950;2023-03-01T01:45:29;0.30;99.60
18454;DHT22;9356;52.202;20.950;2023-03-01T01:46:35;0.30;99.70
18454;DHT22;9356;52.202;20.950;2023-03-01T01:47:40;0.30;99.90
18454;DHT22;9356;52.202;20.950;2023-03-01T01:48:47;0.30;99.90
18454;DHT22;9356;52.202;20.950;2023-03-01T01:49:58;0.30;99.90
18454;DHT22;9356;52.202;20.950;2023-03-01T01:51:01;0.30;99.90
18454;DHT22;9356;52.202;20.950;2023-03-01T01:52:11;0.30;99.90
18454;DHT22;9356;52.202;20.950;2023-03-01T01:53:19;0.30;99.90
18454;DHT22;9356;52.202;20.950;2023-03-01T01:54:26;0.30;99.90
18454;DHT22;9356;52.202;20.950;2023-03-01T01:55:33;0.30;99.90
18454;DHT22;9356;52.202;20.950;2023-03-01T01:56:41;0.40;99.90
18454;DHT22;9356;52.202;20.950;2023-03-01T01:57:50;0.30;99.90
18454;DHT22;9356;52.202;20.950;2023-03-01T01:58:54;0.30;99.90
18454;DHT22;9356;52.202;20.950;2023-03-01T02:00:04;0.30;99.90
18454;DHT22;9356;52.202;20.950;2023-03-01T02:01:14;0.30;99.90
18454;DHT22;9356;52.202;20.950;2023-03-01T02:02:21;0.30;99.90
18454;DHT22;9356;52.202;20.950;2023-03-01T02:03:28;0.30;99.90
18454;DHT22;9356;52.202;20.950;2023-03-01T02:04:35;0.30;99.90
18454;DHT22;9356;52.202;20.950;2023-03-01T02:05:47;0.30;99.90
18454;DHT22;9356;52.202;20.950;2023-03-01T02:07:04;0.30;99.90
18454;DHT22;9356;52.202;20.950;2023-03-01T02:08:12;0.40;99.90
18454;DHT22;9356;52.202;20.950;2023-03-01T02:09:20;0.30;99.90
18454;DHT22;9356;52.202;20.950;2023-03-01T02:10:28;0.30;99.90
18454;DHT22;9356;52.202;20.950;2023-03-01T02:11:35;0.30;99.90
18454;DHT22;9356;52.202;20.950;2023-03-01T02:12:40;0.30;99.90
18454;DHT22;9356;52.202;20.950;2023-03-01T02:13:47;0.20;99.90
18454;DHT22;9356;52.202;20.950;2023-03-01T02:14:51;0.20;99.90
18454;DHT22;9356;52.202;20.950;2023-03-01T02:15:54;0.40;99.90
18454;DHT22;9356;52.202;20.950;2023-03-01T02:16:58;0.20;99.90
18454;DHT22;9356;52.202;20.950;2023-03-01T02:18:03;0.20;99.90
18454;DHT22;9356;52.202;20.950;2023-03-01T02:19:09;0.20;99.90
18454;DHT22;9356;52.202;20.950;2023-03-01T02:20:25;0.20;99.90
18454;DHT22;9356;52.202;20.950;2023-03-01T02:21:50;0.20;99.90
18454;DHT22;9356;52.202;20.950;2023-03-01T02:22:55;0.20;99.90
18454;DHT22;9356;52.202;20.950;2023-03-01T02:24:03;0.20;99.90
18454;DHT22;9356;52.202;20.950;2023-03-01T02:25:25;0.20;99.90
18454;DHT22;9356;52.202;20.950;2023-03-01T02:26:36;0.20;99.90
18454;DHT22;9356;52.202;20.950;2023-03-01T02:27:51;0.20;99.90
18454;DHT22;9356;52.202;20.950;2023-03-01T02:28:59;0.20;99.90
18454;DHT22;9356;52.202;20.950;2023-03-01T02:30:03;0.20;99.90
18454;DHT22;9356;52.202;20.950;2023-03-01T02:31:08;0.20;99.90
18454;DHT22;9356;52.202;20.950;2023-03-01T02:32:31;0.20;99.90
18454;DHT22;9356;52.202;20.950;2023-03-01T02:33:39;0.20;99.90
18454;DHT22;9356;52.202;20.950;2023-03-01T02:34:43;0.20;99.90
18454;DHT22;9356;52.202;20.950;2023-03-01T02:35:50;0.20;99.90
18454;DHT22;9356;52.202;20.950;2023-03-01T02:36:58;0.20;99.90
18454;DHT22;9356;52.202;20.950;2023-03-01T02:38:09;0.20;99.90
18454;DHT22;9356;52.202;20.950;2023-03-01T02:39:18;-0.10;99.90
18454;DHT22;9356;52.202;20.950;2023-03-01T02:40:27;0.20;99.90
18454;DHT22;9356;52.202;20.950;2023-03-01T02:41:36;0.20;99.90
18454;DHT22;9356;52.202;20.950;2023-03-01T02:42:48;0.20;99.90
18454;DHT22;9356;52.202;20.950;2023-03-01T02:43:52;0.10;99.90
18454;DHT22;9356;52.202;20.950;2023-03-01T02:44:57;0.10;99.90
18454;DHT22;9356;52.202;20.950;2023-03-01T02:46:04;0.10;99.90
18454;DHT22;9356;52.202;20.950;2023-03-01T02:47:09;0.10;99.90
18454;DHT22;9356;52.202;20.950;2023-03-01T02:48:11;0.10;99.90
18454;DHT22;9356;52.202;20.950;2023-03-01T02:49:24;0.10;99.90
18454;DHT22;9356;52.202;20.950;2023-03-01T02:50:59;0.10;99.90
18454;DHT22;9356;52.202;20.950;2023-03-01T02:52:34;0.10;99.90
18454;DHT22;9356;52.202;20.950;2023-03-01T02:53:53;0.10;99.90
18454;DHT22;9356;52.202;20.950;2023-03-01T02:55:04;0.10;99.90
18454;DHT22;9356;52.202;20.950;2023-03-01T02:56:10;0.10;99.90
18454;DHT22;9356;52.202;20.950;2023-03-01T02:57:16;0.10;99.90
18454;DHT22;9356;52.202;20.950;2023-03-01T02:58:21;0.20;99.90
18454;DHT22;9356;52.202;20.950;2023-03-01T02:59:28;0.10;99.90
18454;DHT22;9356;52.202;20.950;2023-03-01T03:00:38;0.00;99.90
18454;DHT22;9356;52.202;20.950;2023-03-01T03:01:42;-0.10;99.90
18454;DHT22;9356;52.202;20.950;2023-03-01T03:02:50;-0.10;99.90
18454;DHT22;9356;52.202;20.950;2023-03-01T03:03:53;-0.10;99.90
18454;DHT22;9356;52.202;20.950;2023-03-01T03:04:57;-0.10;99.90
18454;DHT22;9356;52.202;20.950;2023-03-01T03:06:00;0.00;99.90
18454;DHT22;9356;52.202;20.950;2023-03-01T03:07:04;-0.10;99.90
18454;DHT22;9356;52.202;20.950;2023-03-01T03:08:08;-0.10;99.90
18454;DHT22;9356;52.202;20.950;2023-03-01T03:09:16;-0.10;99.90
18454;DHT22;9356;52.202;20.950;2023-03-01T03:10:24;0.00;99.90
18454;DHT22;9356;52.202;20.950;2023-03-01T03:11:28;-0.10;99.90
18454;DHT22;9356;52.202;20.950;2023-03-01T03:12:32;0.00;99.90
18454;DHT22;9356;52.202;20.950;2023-03-01T03:13:36;0.00;99.90
18454;DHT22;9356;52.202;20.950;2023-03-01T03:14:39;0.00;99.90
18454;DHT22;9356;52.202;20.950;2023-03-01T03:15:44;0.00;99.90
18454;DHT22;9356;52.202;20.950;2023-03-01T03:16:48;0.00;99.90
18454;DHT22;9356;52.202;20.950;2023-03-01T03:17:53;0.00;99.90
18454;DHT22;9356;52.202;20.950;2023-03-01T03:18:57;0.00;99.90
18454;DHT22;9356;52.202;20.950;2023-03-01T03:20:09;0.00;99.90
18454;DHT22;9356;52.202;20.950;2023-03-01T03:21:19;0.00;99.90
18454;DHT22;9356;52.202;20.950;2023-03-01T03:22:31;0.00;99.90
18454;DHT22;9356;52.202;20.950;2023-03-01T03:23:33;0.00;99.90
18454;DHT22;9356;52.202;20.950;2023-03-01T03:24:38;0.00;99.90
18454;DHT22;9356;52.202;20.950;2023-03-01T03:25:43;0.00;99.90
18454;DHT22;9356;52.202;20.950;2023-03-01T03:26:47;0.00;99.90
18454;DHT22;9356;52.202;20.950;2023-03-01T03:27:53;0.00;99.90
18454;DHT22;9356;52.202;20.950;2023-03-01T03:28:58;0.20;99.90
18454;DHT22;9356;52.202;20.950;2023-03-01T03:30:02;0.00;99.90
18454;DHT22;9356;52.202;20.950;2023-03-01T03:31:28;0.00;99.90
18454;DHT22;9356;52.202;20.950;2023-03-01T03:32:32;0.10;99.90
18454;DHT22;9356;52.202;20.950;2023-03-01T03:33:35;0.00;99.90
18454;DHT22;9356;52.202;20.950;2023-03-01T03:34:39;0.10;99.90
18454;DHT22;9356;52.202;20.950;2023-03-01T03:35:44;0.00;99.90
18454;DHT22;9356;52.202;20.950;2023-03-01T03:36:47;0.00;99.90
18454;DHT22;9356;52.202;20.950;2023-03-01T03:37:54;0.10;99.90
18454;DHT22;9356;52.202;20.950;2023-03-01T03:39:05;0.10;99.90
18454;DHT22;9356;52.202;20.950;2023-03-01T03:40:10;0.00;99.90
18454;DHT22;9356;52.202;20.950;2023-03-01T03:41:18;0.00;99.90
18454;DHT22;9356;52.202;20.950;2023-03-01T03:42:24;0.00;99.90
18454;DHT22;9356;52.202;20.950;2023-03-01T03:43:27;0.00;99.90
18454;DHT22;9356;52.202;20.950;2023-03-01T03:44:31;0.10;99.90
18454;DHT22;9356;52.202;20.950;2023-03-01T03:45:33;0.00;99.90
18454;DHT22;9356;52.202;20.950;2023-03-01T03:46:39;0.00;99.90
18454;DHT22;9356;52.202;20.950;2023-03-01T03:47:43;0.00;99.90
18454;DHT22;9356;52.202;20.950;2023-03-01T03:48:46;0.00;99.90
18454;DHT22;9356;52.202;20.950;2023-03-01T03:49:54;0.10;99.90
18454;DHT22;9356;52.202;20.950;2023-03-01T03:50:56;0.00;99.90
18454;DHT22;9356;52.202;20.950;2023-03-01T03:52:02;0.00;99.90
18454;DHT22;9356;52.202;20.950;2023-03-01T03:53:08;0.00;99.90
18454;DHT22;9356;52.202;20.950;2023-03-01T03:54:15;0.50;99.90
18454;DHT22;9356;52.202;20.950;2023-03-01T03:55:20;0.10;99.90
18454;DHT22;9356;52.202;20.950;2023-03-01T03:56:24;0.10;99.90
18454;DHT22;9356;52.202;20.950;2023-03-01T03:57:29;0.10;99.90
18454;DHT22;9356;52.202;20.950;2023-03-01T03:58:33;0.10;99.90
18454;DHT22;9356;52.202;20.950;2023-03-01T03:59:36;0.20;99.90
18454;DHT22;9356;52.202;20.950;2023-03-01T04:00:41;0.20;99.90
18454;DHT22;9356;52.202;20.950;2023-03-01T04:01:49;0.20;99.70
18454;DHT22;9356;52.202;20.950;2023-03-01T04:02:53;0.10;99.80
18454;DHT22;9356;52.202;20.950;2023-03-01T04:03:58;0.10;99.90
18454;DHT22;9356;52.202;20.950;2023-03-01T04:05:08;0.10;99.90
18454;DHT22;9356;52.202;20.950;2023-03-01T04:06:12;0.30;99.90
18454;DHT22;9356;52.202;20.950;2023-03-01T04:07:16;0.20;99.90
18454;DHT22;9356;52.202;20.950;2023-03-01T04:08:19;0.20;99.90
18454;DHT22;9356;52.202;20.950;2023-03-01T04:09:23;0.20;99.90
18454;DHT22;9356;52.202;20.950;2023-03-01T04:10:31;0.20;99.80
18454;DHT22;9356;52.202;20.950;2023-03-01T04:11:38;0.20;99.80
18454;DHT22;9356;52.202;20.950;2023-03-01T04:12:43;0.20;99.80
18454;DHT22;9356;52.202;20.950;2023-03-01T04:13:46;0.20;99.60
18454;DHT22;9356;52.202;20.950;2023-03-01T04:14:50;0.20;99.70
18454;DHT22;9356;52.202;20.950;2023-03-01T04:15:55;0.20;99.80
18454;DHT22;9356;52.202;20.950;2023-03-01T04:17:02;0.20;99.80
18454;DHT22;9356;52.202;20.950;2023-03-01T04:18:08;0.30;99.80
18454;DHT22;9356;52.202;20.950;2023-03-01T04:19:12;0.30;99.70
18454;DHT22;9356;52.202;20.950;2023-03-01T04:20:20;0.30;99.70
18454;DHT22;9356;52.202;20.950;2023-03-01T04:21:26;0.20;99.70
18454;DHT22;9356;52.202;20.950;2023-03-01T04:22:30;0.30;99.80
18454;DHT22;9356;52.202;20.950;2023-03-01T04:23:34;0.30;99.80
18454;DHT22;9356;52.202;20.950;2023-03-01T04:24:41;0.20;99.80
18454;DHT22;9356;52.202;20.950;2023-03-01T04:25:47;0.30;99.80
18454;DHT22;9356;52.202;20.950;2023-03-01T04:26:56;0.60;99.80
18454;DHT22;9356;52.202;20.950;2023-03-01T04:27:59;0.30;99.70
18454;DHT22;9356;52.202;20.950;2023-03-01T04:29:02;0.30;99.70
18454;DHT22;9356;52.202;20.950;2023-03-01T04:30:09;0.20;99.70
18454;DHT22;9356;52.202;20.950;2023-03-01T04:31:13;0.30;99.70
18454;DHT22;9356;52.202;20.950;2023-03-01T04:32:21;0.30;99.70
18454;DHT22;9356;52.202;20.950;2023-03-01T04:33:26;0.20;99.60
18454;DHT22;9356;52.202;20.950;2023-03-01T04:34:30;0.20;99.70
18454;DHT22;9356;52.202;20.950;2023-03-01T04:35:35;0.00;99.70
18454;DHT22;9356;52.202;20.950;2023-03-01T04:36:39;0.20;99.80
18454;DHT22;9356;52.202;20.950;2023-03-01T04:37:44;0.20;99.80
18454;DHT22;9356;52.202;20.950;2023-03-01T04:38:48;0.20;99.80
18454;DHT22;9356;52.202;20.950;2023-03-01T04:39:53;0.20;99.80
18454;DHT22;9356;52.202;20.950;2023-03-01T04:40:55;0.20;99.80
18454;DHT22;9356;52.202;20.950;2023-03-01T04:41:59;0.30;99.60
18454;DHT22;9356;52.202;20.950;2023-03-01T04:43:03;0.10;99.70
18454;DHT22;9356;52.202;20.950;2023-03-01T04:44:07;0.20;99.80
18454;DHT22;9356;52.202;20.950;2023-03-01T04:45:11;0.10;99.60
18454;DHT22;9356;52.202;20.950;2023-03-01T04:46:18;0.00;99.70
18454;DHT22;9356;52.202;20.950;2023-03-01T04:47:26;0.10;99.90
18454;DHT22;9356;52.202;20.950;2023-03-01T04:48:30;0.20;99.90
18454;DHT22;9356;52.202;20.950;2023-03-01T04:49:34;0.10;99.90
18454;DHT22;9356;52.202;20.950;2023-03-01T04:50:41;0.10;99.80
18454;DHT22;9356;52.202;20.950;2023-03-01T04:51:45;0.00;99.90
18454;DHT22;9356;52.202;20.950;2023-03-01T04:52:48;0.10;99.90
18454;DHT22;9356;52.202;20.950;2023-03-01T04:53:51;0.10;99.90
18454;DHT22;9356;52.202;20.950;2023-03-01T04:54:57;0.00;99.90
18454;DHT22;9356;52.202;20.950;2023-03-01T04:56:00;0.00;99.90
18454;DHT22;9356;52.202;20.950;2023-03-01T04:57:04;0.10;99.90
18454;DHT22;9356;52.202;20.950;2023-03-01T04:58:06;0.10;99.90
18454;DHT22;9356;52.202;20.950;2023-03-01T04:59:10;0.10;99.90
18454;DHT22;9356;52.202;20.950;2023-03-01T05:00:15;0.10;99.90
18454;DHT22;9356;52.202;20.950;2023-03-01T05:01:25;0.10;99.90
18454;DHT22;9356;52.202;20.950;2023-03-01T05:02:29;0.10;99.90
18454;DHT22;9356;52.202;20.950;2023-03-01T05:03:32;0.00;99.90
18454;DHT22;9356;52.202;20.950;2023-03-01T05:04:37;0.00;99.90
18454;DHT22;9356;52.202;20.950;2023-03-01T05:05:42;-0.10;99.90
18454;DHT22;9356;52.202;20.950;2023-03-01T05:06:49;-0.10;99.90
18454;DHT22;9356;52.202;20.950;2023-03-01T05:07:57;-0.20;99.90
18454;DHT22;9356;52.202;20.950;2023-03-01T05:09:05;-0.20;99.90
18454;DHT22;9356;52.202;20.950;2023-03-01T05:10:09;-0.30;99.90
18454;DHT22;9356;52.202;20.950;2023-03-01T05:11:14;-0.20;99.90
18454;DHT22;9356;52.202;20.950;2023-03-01T05:12:18;-0.20;99.90
18454;DHT22;9356;52.202;20.950;2023-03-01T05:13:21;-0.20;99.90
18454;DHT22;9356;52.202;20.950;2023-03-01T05:14:25;-0.50;99.90
18454;DHT22;9356;52.202;20.950;2023-03-01T05:15:30;-0.20;99.90
18454;DHT22;9356;52.202;20.950;2023-03-01T05:16:36;-0.10;99.90
18454;DHT22;9356;52.202;20.950;2023-03-01T05:17:44;-0.10;99.90
18454;DHT22;9356;52.202;20.950;2023-03-01T05:18:46;0.00;99.90
18454;DHT22;9356;52.202;20.950;2023-03-01T05:19:52;0.00;99.90
18454;DHT22;9356;52.202;20.950;2023-03-01T05:21:03;0.00;99.90
18454;DHT22;9356;52.202;20.950;2023-03-01T05:22:07;0.00;99.90
18454;DHT22;9356;52.202;20.950;2023-03-01T05:23:10;0.00;99.90
18454;DHT22;9356;52.202;20.950;2023-03-01T05:24:16;0.00;99.90
18454;DHT22;9356;52.202;20.950;2023-03-01T05:25:19;0.00;99.90
18454;DHT22;9356;52.202;20.950;2023-03-01T05:26:26;0.10;99.90
18454;DHT22;9356;52.202;20.950;2023-03-01T05:27:30;0.10;99.90
18454;DHT22;9356;52.202;20.950;2023-03-01T05:28:35;0.10;99.90
18454;DHT22;9356;52.202;20.950;2023-03-01T05:29:39;0.10;99.90
18454;DHT22;9356;52.202;20.950;2023-03-01T05:30:52;0.10;99.90
18454;DHT22;9356;52.202;20.950;2023-03-01T05:31:57;0.20;99.90
18454;DHT22;9356;52.202;20.950;2023-03-01T05:33:03;0.20;99.90
18454;DHT22;9356;52.202;20.950;2023-03-01T05:34:05;0.10;99.90
18454;DHT22;9356;52.202;20.950;2023-03-01T05:35:12;0.10;99.90
18454;DHT22;9356;52.202;20.950;2023-03-01T05:36:18;0.10;99.90
18454;DHT22;9356;52.202;20.950;2023-03-01T05:37:22;0.20;99.90
18454;DHT22;9356;52.202;20.950;2023-03-01T05:38:26;0.20;99.90
18454;DHT22;9356;52.202;20.950;2023-03-01T05:39:30;0.20;99.90
18454;DHT22;9356;52.202;20.950;2023-03-01T05:40:34;0.20;99.80
18454;DHT22;9356;52.202;20.950;2023-03-01T05:41:38;0.20;99.90
18454;DHT22;9356;52.202;20.950;2023-03-01T05:42:43;0.80;99.90
18454;DHT22;9356;52.202;20.950;2023-03-01T05:43:47;0.30;99.90
18454;DHT22;9356;52.202;20.950;2023-03-01T05:44:50;0.20;99.90
18454;DHT22;9356;52.202;20.950;2023-03-01T05:45:58;0.30;99.90
18454;DHT22;9356;52.202;20.950;2023-03-01T05:47:03;0.40;99.90
18454;DHT22;9356;52.202;20.950;2023-03-01T05:48:11;0.40;99.90
18454;DHT22;9356;52.202;20.950;2023-03-01T05:49:17;0.40;99.80
18454;DHT22;9356;52.202;20.950;2023-03-01T05:50:22;0.40;99.70
18454;DHT22;9356;52.202;20.950;2023-03-01T05:51:29;0.40;99.70
18454;DHT22;9356;52.202;20.950;2023-03-01T05:52:34;0.50;99.70
18454;DHT22;9356;52.202;20.950;2023-03-01T05:53:38;0.50;99.70
18454;DHT22;9356;52.202;20.950;2023-03-01T05:54:41;0.60;99.70
18454;DHT22;9356;52.202;20.950;2023-03-01T05:55:49;0.60;99.70
18454;DHT22;9356;52.202;20.950;2023-03-01T05:56:52;0.60;99.40
18454;DHT22;9356;52.202;20.950;2023-03-01T05:57:58;0.60;99.50
18454;DHT22;9356;52.202;20.950;2023-03-01T05:59:02;0.60;99.50
18454;DHT22;9356;52.202;20.950;2023-03-01T06:00:08;0.70;99.60
18454;DHT22;9356;52.202;20.950;2023-03-01T06:01:13;0.70;99.50
18454;DHT22;9356;52.202;20.950;2023-03-01T06:02:17;0.70;99.50
18454;DHT22;9356;52.202;20.950;2023-03-01T06:03:22;0.80;99.50
18454;DHT22;9356;52.202;20.950;2023-03-01T06:04:26;1.20;99.60
18454;DHT22;9356;52.202;20.950;2023-03-01T06:05:31;0.90;99.50
18454;DHT22;9356;52.202;20.950;2023-03-01T06:06:36;1.00;99.70
18454;DHT22;9356;52.202;20.950;2023-03-01T06:07:40;1.00;99.30
18454;DHT22;9356;52.202;20.950;2023-03-01T06:08:44;1.00;99.00
18454;DHT22;9356;52.202;20.950;2023-03-01T06:09:48;1.00;99.10
18454;DHT22;9356;52.202;20.950;2023-03-01T06:10:56;1.40;99.30
18454;DHT22;9356;52.202;20.950;2023-03-01T06:12:05;1.20;99.20
18454;DHT22;9356;52.202;20.950;2023-03-01T06:13:10;1.20;99.10
18454;DHT22;9356;52.202;20.950;2023-03-01T06:14:14;1.30;98.70
18454;DHT22;9356;52.202;20.950;2023-03-01T06:15:24;1.40;98.80
18454;DHT22;9356;52.202;20.950;2023-03-01T06:16:28;1.50;98.80
18454;DHT22;9356;52.202;20.950;2023-03-01T06:17:33;1.50;98.70
18454;DHT22;9356;52.202;20.950;2023-03-01T06:18:41;1.60;98.60
18454;DHT22;9356;52.202;20.950;2023-03-01T06:19:44;1.70;98.50
18454;DHT22;9356;52.202;20.950;2023-03-01T06:20:53;1.80;98.40
18454;DHT22;9356;52.202;20.950;2023-03-01T06:21:57;1.80;98.30
18454;DHT22;9356;52.202;20.950;2023-03-01T06:23:00;1.90;98.20
18454;DHT22;9356;52.202;20.950;2023-03-01T06:24:04;1.90;98.00
18454;DHT22;9356;52.202;20.950;2023-03-01T06:25:09;1.90;98.00
18454;DHT22;9356;52.202;20.950;2023-03-01T06:26:14;2.00;97.90
18454;DHT22;9356;52.202;20.950;2023-03-01T06:27:21;2.10;97.90
18454;DHT22;9356;52.202;20.950;2023-03-01T06:28:27;2.20;97.80
18454;DHT22;9356;52.202;20.950;2023-03-01T06:29:29;2.30;97.70
18454;DHT22;9356;52.202;20.950;2023-03-01T06:30:33;2.40;97.50
18454;DHT22;9356;52.202;20.950;2023-03-01T06:31:37;2.50;97.30
18454;DHT22;9356;52.202;20.950;2023-03-01T06:32:43;2.50;97.20
18454;DHT22;9356;52.202;20.950;2023-03-01T06:33:50;3.00;97.10
18454;DHT22;9356;52.202;20.950;2023-03-01T06:34:54;2.70;96.70
18454;DHT22;9356;52.202;20.950;2023-03-01T06:35:57;2.90;96.50
18454;DHT22;9356;52.202;20.950;2023-03-01T06:37:03;2.90;96.10
18454;DHT22;9356;52.202;20.950;2023-03-01T06:38:07;3.00;96.30
18454;DHT22;9356;52.202;20.950;2023-03-01T06:39:11;3.10;95.90
18454;DHT22;9356;52.202;20.950;2023-03-01T06:40:17;3.00;95.80
18454;DHT22;9356;52.202;20.950;2023-03-01T06:41:22;3.10;95.80
18454;DHT22;9356;52.202;20.950;2023-03-01T06:42:24;3.20;95.90
18454;DHT22;9356;52.202;20.950;2023-03-01T06:43:28;3.30;95.70
18454;DHT22;9356;52.202;20.950;2023-03-01T06:44:33;3.40;95.40
18454;DHT22;9356;52.202;20.950;2023-03-01T06:45:37;3.50;95.20
18454;DHT22;9356;52.202;20.950;2023-03-01T06:46:40;3.50;94.60
18454;DHT22;9356;52.202;20.950;2023-03-01T06:47:44;3.60;94.80
18454;DHT22;9356;52.202;20.950;2023-03-01T06:48:48;3.70;94.60
18454;DHT22;9356;52.202;20.950;2023-03-01T06:49:54;3.80;94.50
18454;DHT22;9356;52.202;20.950;2023-03-01T06:50:58;3.90;94.40
18454;DHT22;9356;52.202;20.950;2023-03-01T06:52:03;4.00;94.00
18454;DHT22;9356;52.202;20.950;2023-03-01T06:53:08;4.10;93.90
18454;DHT22;9356;52.202;20.950;2023-03-01T06:54:13;4.20;93.50
18454;DHT22;9356;52.202;20.950;2023-03-01T06:55:16;4.30;93.40
18454;DHT22;9356;52.202;20.950;2023-03-01T06:56:20;4.30;92.90
18454;DHT22;9356;52.202;20.950;2023-03-01T06:57:24;4.40;92.90
18454;DHT22;9356;52.202;20.950;2023-03-01T06:58:27;4.50;92.70
18454;DHT22;9356;52.202;20.950;2023-03-01T06:59:31;4.60;91.90
18454;DHT22;9356;52.202;20.950;2023-03-01T07:00:34;4.60;91.80
18454;DHT22;9356;52.202;20.950;2023-03-01T07:01:37;4.70;92.10